Unicom:                    122.8

AWOS:                  118.275

Elevation           1458’ MSL

TPA:                   2500’ MSL

06/24:         5003’ L   75’ W

PAPI:       06/Left     24/Left

(Operate lights on unicom freq.)

Traffic Pattern: Left

Beacon: Sunset to Sunrise

Windsock: yes, lighted

Segmented Circle: No

 

Cleveland Center: 126.72/291.65

FSS: Altoona

[Source: ADDS]
METAR
KFKL 291044Z AUTO 14004KT 10SM SCT014 OVC033 02/02 A3011 RMK AO2 FZRANO =
KFKL 290531Z 2906/3006 16003KT P6SM OVC025 FM292000 15008KT P6SM SCT035 BKN250 FM300100 14014G22KT P6SM OVC100
TAF
KFKL 290531Z 2906/3006 16003KT P6SM OVC025 FM292000 15008KT P6SM SCT035 BKN250 FM300100 14014G22KT P6SM OVC100 =
[Source: ADDS]
METAR
KDUJ 290953Z AUTO 00000KT 10SM OVC032 01/M01 A3009 RMK AO2 SLP205 T00111011 =
KDUJ 290531Z 2906/3006 00000KT P6SM OVC025 FM291100 16006KT P6SM OVC015 FM291800 16008KT P6SM BKN025 FM292000 15008KT P6SM SCT035 BKN060
TAF
KDUJ 290531Z 2906/3006 00000KT P6SM OVC025 FM291100 16006KT P6SM OVC015 FM291800 16008KT P6SM BKN025 FM292000 15008KT P6SM SCT035 BKN060 =

Nearby Overnight Accommodations.

The Park Inn by Radisson

45 Holiday Inn Rd

Clarion, PA 16214

Phone # (814) 226-8850

Park Inn by Radisson

45 Holiday Inn Rd Clarion, PA 16214 Phone # (814) 226-8850

Microtel

121 North Point Drive

Clarion, PA 16214

Phone # (814) 227-2223

Microtel

121 North Point Drive Clarion, PA 16214 Phone # (814) 227-2223

Hampton Inn and Suites

4 Hospital Drive

Clarion, PA 16214

Phone # (814) 226-4444

Hampton Inn & Suites

4 Hospital Drive Clarion, PA 16214 Phone # (814) 226-4444

Comfort Inn

129 Dolby Street

Clarion, PA 16214

Phone # (814) 226-5230

Comfort Inn

129 Dolby Street Clarion, PA 16214 Phone # (814) 226-5230

Quality Inn

24 United Drive

Clarion, PA 16214 

Phone # (814) 226-8682 


Quality Inn

24 United Drive Clarion, PA 16214 Phone # (814) 226-8682

Holiday Inn Express

325 Perkins Road

Clarion, PA 16214

Phone (814) 223-4010


Holiday Inn Express

325 Perkins Road Clarion, PA 16214 Phone (814) 223-4010

Super 8 Motel

135 Hotel Road

Clarion, PA 16214

Phone # (800) 536-9326

Super 8 Motel

135 Hotel Road Clarion, PA 16214 Phone # (800) 536-9326


Transportation.

Enterprise

545 South Fifth Avenue

Clarion, PA 16214

Phone # (814) 227-1284

Enterprise

545 South Fifth Avenue Clarion, PA 16214 Phone # (814) 227-1284

Clarion County Taxi, Inc.

East End Road

Clarion County Taxi, Inc.

Shippenville, PA 16254

Phone # (814) 226-8635

 *cash, check, debit


Choice Cab Co.

Clarion, PA 16214

Phone # (814) 221- 4992

 *cash only